Valle Grande, Argentina
Current Conditions -  °F | °C
As of 2:00 AM on Sunday 26 Oct 2014 (Local Time) from SASJ Reporting Station
Clear Clear  
Wind Chill: 70°   Ceiling: Unl
Heat Index: 70°   Visibility: 6mi
Dew Point: 57°   Wind: 6mph
Humidity: 64%   Direction: 320°NW
Pressure: 29.88"   Gusts: NA
Location:  23.47°S, 64.98°W
Report Text: SASJ 260500Z 32005KT CAVOK 21/14 Q1012
Loading
Personal Weather Stations






























Interactive Weather Map
Tropical Storm Tracking
New forecast layout! Learn more

10-Day Weather Forecast

Advertisements
Track Severe Weather on mobile